Time;durP1;ratioP1;P1;durP2;ratioP2;P2;SDS_P1;SDS_P2;PMS_P1;PMS_P2;Temp;Humidity;BMP_temperature;BMP_pressure;BME280_temperature;BME280_humidity;BME280_pressure;Samples;Min_cycle;Max_cycle;Signal;HPM_P1;HPM_P2
2023/08/20 00:00:08;;;;;;;125.80;115.80;;;;;;;;;;5063513;28;20427;-80
2023/08/20 00:02:36;;;;;;;167.57;153.50;;;;;;;;;;5060185;28;20522;-81
2023/08/20 00:05:04;;;;;;;150.57;139.50;;;;;;;;;;5045077;28;20508;-81
2023/08/20 00:07:31;;;;;;;221.05;202.75;;;;;;;;;;5061223;28;20489;-80
2023/08/20 00:09:59;;;;;;;129.32;119.68;;;;;;;;;;5038411;28;20435;-81
2023/08/20 00:12:26;;;;;;;163.10;147.77;;;;;;;;;;5066727;28;20455;-81
2023/08/20 00:15:07;;;;;;;349.77;319.95;;;;;;;;;;5055252;28;20441;-80
2023/08/20 00:17:39;;;;;;;5.72;5.22;;;;;;;;;;5061571;28;20424;-81
2023/08/20 00:20:12;;;;;;;196.73;180.48;;;;;;;;;;5044936;28;20770;-81
2023/08/20 00:22:41;;;;;;;165.40;152.43;;;;;;;;;;5062702;28;20470;-80
2023/08/20 00:25:09;;;;;;;42.33;39.17;;;;;;;;;;5062648;28;20439;-80
2023/08/20 00:27:36;;;;;;;6.05;4.97;;;;;;;;;;5039424;28;20463;-80
2023/08/20 00:30:04;;;;;;;14.50;13.30;;;;;;;;;;5061112;28;20431;-80
2023/08/20 00:32:31;;;;;;;17.95;16.52;;;;;;;;;;5062817;28;20908;-80
2023/08/20 00:34:58;;;;;;;6.30;5.13;;;;;;;;;;5062426;28;20418;-80
2023/08/20 00:37:26;;;;;;;51.33;47.78;;;;;;;;;;5061570;28;21226;-80
2023/08/20 00:39:53;;;;;;;11.95;10.85;;;;;;;;;;5043337;28;20459;-81
2023/08/20 00:42:20;;;;;;;6.82;5.30;;;;;;;;;;5060720;28;20435;-81
2023/08/20 00:44:47;;;;;;;8.27;5.18;;;;;;;;;;5041652;28;20427;-81
2023/08/20 00:47:18;;;;;;;6.18;4.80;;;;;;;;;;5062374;28;20474;-81
2023/08/20 00:49:46;;;;;;;6.47;4.10;;;;;;;;;;5065025;28;20945;-81
2023/08/20 00:52:14;;;;;;;878.45;800.25;;;;;;;;;;5041784;28;20546;-81
2023/08/20 00:54:42;;;;;;;587.92;536.60;;;;;;;;;;5061916;28;20431;-81
2023/08/20 00:57:09;;;;;;;568.05;517.92;;;;;;;;;;5060754;28;20536;-80
2023/08/20 00:59:36;;;;;;;5.85;4.85;;;;;;;;;;5067249;28;20463;-80
2023/08/20 01:02:04;;;;;;;185.80;171.43;;;;;;;;;;5057980;28;20444;-80
2023/08/20 01:04:31;;;;;;;71.40;66.10;;;;;;;;;;5061792;28;20805;-80
2023/08/20 01:07:13;;;;;;;38.20;35.58;;;;;;;;;;5062285;28;20435;-80
2023/08/20 01:09:59;;;;;;;93.45;87.18;;;;;;;;;;5061298;28;20506;-81
2023/08/20 01:12:26;;;;;;;517.92;471.48;;;;;;;;;;5046180;28;20458;-81
2023/08/20 01:14:53;;;;;;;570.95;520.10;;;;;;;;;;5041543;28;20635;-80
2023/08/20 01:17:21;;;;;;;276.17;254.30;;;;;;;;;;5058752;28;20457;-81
2023/08/20 01:19:48;;;;;;;18.80;17.40;;;;;;;;;;5045471;28;20514;-81
2023/08/20 01:22:21;;;;;;;140.68;130.52;;;;;;;;;;5058441;28;20435;-82
2023/08/20 01:24:51;;;;;;;10.37;9.57;;;;;;;;;;5060152;28;20435;-81
2023/08/20 01:27:26;;;;;;;25.75;24.00;;;;;;;;;;5041864;28;20439;-78
2023/08/20 01:29:53;;;;;;;71.57;66.85;;;;;;;;;;5060724;28;20633;-82
2023/08/20 01:32:21;;;;;;;181.70;168.20;;;;;;;;;;5059624;28;20840;-80
2023/08/20 01:34:48;;;;;;;584.03;532.92;;;;;;;;;;5058299;28;20443;-79
2023/08/20 01:37:16;;;;;;;774.85;707.83;;;;;;;;;;5061853;28;20454;-80
2023/08/20 01:39:43;;;;;;;184.95;171.50;;;;;;;;;;5060194;28;20951;-80
2023/08/20 01:42:10;;;;;;;404.05;368.65;;;;;;;;;;5042758;28;20555;-80
2023/08/20 01:44:37;;;;;;;492.25;450.27;;;;;;;;;;5043058;28;20495;-80
2023/08/20 01:47:05;;;;;;;191.27;174.13;;;;;;;;;;5063498;28;20466;-80
2023/08/20 01:49:32;;;;;;;245.82;227.23;;;;;;;;;;5060777;28;20459;-80
2023/08/20 01:51:59;;;;;;;296.33;273.48;;;;;;;;;;5058212;28;20477;-80
2023/08/20 01:54:26;;;;;;;856.50;737.35;;;;;;;;;;5055142;28;20423;-80
2023/08/20 01:56:53;;;;;;;879.38;715.47;;;;;;;;;;5053844;28;20433;-80
2023/08/20 01:59:25;;;;;;;836.65;733.15;;;;;;;;;;5044691;28;20485;-79
2023/08/20 02:01:52;;;;;;;778.42;702.20;;;;;;;;;;5059656;28;20548;-80
2023/08/20 02:04:19;;;;;;;677.65;620.50;;;;;;;;;;5061465;28;20943;-80
2023/08/20 02:06:46;;;;;;;407.58;372.65;;;;;;;;;;5045522;28;21109;-79
2023/08/20 02:09:13;;;;;;;476.10;435.02;;;;;;;;;;5059608;28;20431;-80
2023/08/20 02:11:41;;;;;;;841.55;688.97;;;;;;;;;;5042907;28;20434;-80
2023/08/20 02:14:08;;;;;;;629.33;562.53;;;;;;;;;;5041126;28;21020;-80
2023/08/20 02:16:35;;;;;;;797.25;710.75;;;;;;;;;;5057566;28;21109;-80
2023/08/20 02:19:02;;;;;;;765.13;693.97;;;;;;;;;;5039635;28;20453;-79
2023/08/20 02:21:30;;;;;;;655.83;600.15;;;;;;;;;;5062788;28;20428;-80
2023/08/20 02:23:57;;;;;;;751.53;678.65;;;;;;;;;;5058594;28;20978;-79
2023/08/20 02:26:24;;;;;;;546.58;499.60;;;;;;;;;;5059884;28;21032;-80
2023/08/20 02:28:51;;;;;;;658.05;602.40;;;;;;;;;;5042813;28;20514;-80
2023/08/20 02:31:18;;;;;;;745.50;677.25;;;;;;;;;;5043061;28;20449;-80
2023/08/20 02:33:45;;;;;;;775.22;697.42;;;;;;;;;;5063965;28;20471;-80
2023/08/20 02:36:12;;;;;;;772.95;695.80;;;;;;;;;;5058774;28;20451;-80
2023/08/20 02:38:40;;;;;;;799.22;701.70;;;;;;;;;;5060950;28;20463;-80
2023/08/20 02:41:07;;;;;;;872.63;692.00;;;;;;;;;;5042509;28;20518;-80
2023/08/20 02:43:34;;;;;;;766.30;681.22;;;;;;;;;;5044185;28;20518;-80
2023/08/20 02:46:02;;;;;;;844.05;682.38;;;;;;;;;;5059182;28;20913;-81
2023/08/20 02:48:30;;;;;;;850.58;721.03;;;;;;;;;;5058992;28;20440;-80
2023/08/20 02:50:57;;;;;;;881.40;701.35;;;;;;;;;;5060109;28;20477;-81
2023/08/20 02:53:24;;;;;;;797.17;718.60;;;;;;;;;;5055247;28;20432;-80
2023/08/20 02:55:51;;;;;;;838.22;713.88;;;;;;;;;;5041818;28;20433;-80
2023/08/20 02:58:18;;;;;;;655.72;598.05;;;;;;;;;;5043581;28;20840;-81
2023/08/20 03:00:45;;;;;;;371.42;337.48;;;;;;;;;;5059844;28;20449;-80
2023/08/20 03:03:13;;;;;;;299.90;274.05;;;;;;;;;;5059638;28;20591;-80
2023/08/20 03:05:40;;;;;;;278.83;254.47;;;;;;;;;;5061089;28;20429;-80
2023/08/20 03:08:10;;;;;;;6.85;4.40;;;;;;;;;;5057593;28;20986;-80
2023/08/20 03:10:37;;;;;;;4.88;4.32;;;;;;;;;;5046837;28;20431;-80
2023/08/20 03:13:05;;;;;;;5.10;4.32;;;;;;;;;;5063152;28;20432;-80
2023/08/20 03:15:35;;;;;;;4.75;4.22;;;;;;;;;;5062703;28;20435;-80
2023/08/20 03:18:03;;;;;;;9.50;8.63;;;;;;;;;;5043616;28;20451;-80
2023/08/20 03:20:32;;;;;;;21.05;19.55;;;;;;;;;;5048665;28;20427;-79
2023/08/20 03:23:00;;;;;;;6.28;5.07;;;;;;;;;;5063518;28;20917;-80
2023/08/20 03:25:27;;;;;;;6.90;4.47;;;;;;;;;;5062283;28;20460;-80
2023/08/20 03:28:01;;;;;;;7.75;7.05;;;;;;;;;;5063388;28;20427;-80
2023/08/20 03:30:29;;;;;;;6.20;4.65;;;;;;;;;;5046022;28;20534;-80
2023/08/20 03:32:56;;;;;;;5.18;4.68;;;;;;;;;;5044028;28;20442;-80
2023/08/20 03:35:23;;;;;;;6.82;6.28;;;;;;;;;;5061705;28;20428;-80
2023/08/20 03:37:53;;;;;;;11.90;7.20;;;;;;;;;;5058153;28;20431;-81
2023/08/20 03:40:20;;;;;;;5.88;4.35;;;;;;;;;;5045136;28;20440;-80
2023/08/20 03:42:48;;;;;;;23.48;21.73;;;;;;;;;;5045579;28;20934;-80
2023/08/20 03:45:15;;;;;;;143.63;133.73;;;;;;;;;;5046451;28;20540;-80
2023/08/20 03:47:44;;;;;;;36.97;34.60;;;;;;;;;;5064197;28;20427;-80
2023/08/20 03:50:11;;;;;;;235.57;218.02;;;;;;;;;;5063036;28;20937;-80
2023/08/20 03:52:39;;;;;;;606.22;552.47;;;;;;;;;;5064296;28;20506;-79
2023/08/20 03:55:06;;;;;;;706.47;628.53;;;;;;;;;;5045277;28;20986;-79
2023/08/20 03:57:33;;;;;;;699.22;620.97;;;;;;;;;;5044667;28;20985;-79
2023/08/20 04:00:04;;;;;;;615.00;562.20;;;;;;;;;;5062184;28;20501;-79
2023/08/20 04:02:31;;;;;;;248.30;226.95;;;;;;;;;;5061235;28;20428;-79
2023/08/20 04:04:59;;;;;;;217.40;200.32;;;;;;;;;;5063665;28;20427;-79
2023/08/20 04:07:33;;;;;;;186.50;173.30;;;;;;;;;;5065313;28;20485;-79
2023/08/20 04:10:00;;;;;;;178.95;165.88;;;;;;;;;;5062219;28;20425;-80
2023/08/20 04:12:28;;;;;;;161.45;150.18;;;;;;;;;;5063637;28;20451;-79
2023/08/20 04:14:55;;;;;;;113.53;105.70;;;;;;;;;;5062579;28;20510;-79
2023/08/20 04:17:22;;;;;;;33.78;31.15;;;;;;;;;;5063567;28;20514;-80
2023/08/20 04:19:52;;;;;;;197.77;182.13;;;;;;;;;;5047402;28;20523;-80
2023/08/20 04:22:19;;;;;;;22.35;20.67;;;;;;;;;;5061390;28;20588;-80
2023/08/20 04:24:47;;;;;;;15.52;14.40;;;;;;;;;;5046521;28;20497;-80
2023/08/20 04:27:14;;;;;;;27.05;25.10;;;;;;;;;;5062487;28;21935;-80
2023/08/20 04:29:41;;;;;;;5.05;4.53;;;;;;;;;;5062829;28;20570;-80
2023/08/20 04:32:09;;;;;;;4.43;3.60;;;;;;;;;;5061836;28;20518;-80
2023/08/20 04:34:36;;;;;;;6.65;4.15;;;;;;;;;;5061567;28;20982;-80
2023/08/20 04:37:03;;;;;;;61.60;57.33;;;;;;;;;;5062418;28;20427;-80
2023/08/20 04:39:30;;;;;;;4.33;3.73;;;;;;;;;;5046875;28;20475;-80
2023/08/20 04:42:00;;;;;;;6.18;5.38;;;;;;;;;;5057013;28;20560;-80
2023/08/20 04:44:27;;;;;;;7.88;4.03;;;;;;;;;;5056490;28;20438;-80
2023/08/20 04:46:54;;;;;;;5.75;3.95;;;;;;;;;;5060791;28;20485;-80
2023/08/20 04:49:21;;;;;;;5.13;3.80;;;;;;;;;;5062535;28;21880;-80
2023/08/20 04:51:49;;;;;;;4.88;4.22;;;;;;;;;;5063668;28;20427;-80
2023/08/20 04:54:16;;;;;;;18.40;16.65;;;;;;;;;;5061621;28;20439;-80
2023/08/20 04:56:43;;;;;;;9.50;8.80;;;;;;;;;;5058727;28;20524;-80
2023/08/20 04:59:11;;;;;;;82.38;76.50;;;;;;;;;;5060841;28;20463;-80
2023/08/20 05:01:39;;;;;;;15.05;13.65;;;;;;;;;;5044770;28;20518;-79
2023/08/20 05:04:06;;;;;;;145.47;133.90;;;;;;;;;;5061725;28;20447;-80
2023/08/20 05:06:36;;;;;;;61.35;55.95;;;;;;;;;;5059476;28;20485;-80
2023/08/20 05:09:04;;;;;;;388.88;355.27;;;;;;;;;;5038908;28;20489;-81
2023/08/20 05:11:32;;;;;;;47.53;43.85;;;;;;;;;;5059014;28;20539;-80
2023/08/20 05:14:00;;;;;;;168.95;155.38;;;;;;;;;;5059664;28;20506;-80
2023/08/20 05:16:28;;;;;;;17.88;16.50;;;;;;;;;;5060738;28;21273;-79
2023/08/20 05:18:55;;;;;;;510.67;465.75;;;;;;;;;;5057771;28;21276;-80
2023/08/20 05:21:25;;;;;;;507.70;463.88;;;;;;;;;;5057221;28;20508;-80
2023/08/20 05:23:57;;;;;;;479.45;437.52;;;;;;;;;;5040905;28;20427;-79
2023/08/20 05:26:24;;;;;;;557.13;508.45;;;;;;;;;;5059772;28;20427;-80
2023/08/20 05:28:51;;;;;;;360.30;329.57;;;;;;;;;;5065037;28;20467;-79
2023/08/20 05:31:18;;;;;;;432.70;394.67;;;;;;;;;;5057834;28;20526;-80
2023/08/20 05:33:46;;;;;;;528.83;483.83;;;;;;;;;;5056505;28;20430;-80
2023/08/20 05:36:13;;;;;;;221.67;202.70;;;;;;;;;;5059170;28;20455;-82
2023/08/20 05:38:42;;;;;;;5.20;4.03;;;;;;;;;;5066937;28;20461;-79
2023/08/20 05:41:10;;;;;;;46.53;42.57;;;;;;;;;;5038300;28;20432;-80
2023/08/20 05:43:37;;;;;;;43.47;39.78;;;;;;;;;;5057026;28;22232;-81
2023/08/20 05:46:07;;;;;;;7.40;6.03;;;;;;;;;;5055983;28;20439;-80
2023/08/20 05:48:34;;;;;;;7.75;3.67;;;;;;;;;;5059397;28;20428;-80
2023/08/20 05:51:01;;;;;;;26.27;24.03;;;;;;;;;;5057683;28;20427;-80
2023/08/20 05:53:28;;;;;;;133.88;123.75;;;;;;;;;;5059703;28;20431;-80
2023/08/20 05:55:55;;;;;;;346.73;315.42;;;;;;;;;;5058155;28;20435;-80
2023/08/20 05:58:22;;;;;;;729.72;666.85;;;;;;;;;;5060452;28;20502;-80
2023/08/20 06:00:50;;;;;;;355.30;324.33;;;;;;;;;;5058407;28;20615;-81
2023/08/20 06:03:17;;;;;;;550.10;499.80;;;;;;;;;;5060904;28;21067;-79
2023/08/20 06:05:44;;;;;;;466.27;423.88;;;;;;;;;;5058005;28;20435;-79
2023/08/20 06:08:11;;;;;;;216.77;199.60;;;;;;;;;;5058485;28;20434;-79
2023/08/20 06:10:38;;;;;;;234.73;216.43;;;;;;;;;;5058327;28;20428;-79
2023/08/20 06:13:08;;;;;;;622.55;567.17;;;;;;;;;;5056670;28;20484;-79
2023/08/20 06:15:35;;;;;;;4.45;4.05;;;;;;;;;;5057383;28;20501;-79
2023/08/20 06:18:02;;;;;;;54.65;50.47;;;;;;;;;;5055972;28;20514;-79
2023/08/20 06:20:29;;;;;;;47.83;44.25;;;;;;;;;;5056376;28;20440;-79
2023/08/20 06:22:56;;;;;;;21.00;19.00;;;;;;;;;;5056953;28;20440;-79
2023/08/20 06:25:33;;;;;;;48.90;44.33;;;;;;;;;;5055845;28;20519;-83
2023/08/20 06:28:00;;;;;;;8.40;7.68;;;;;;;;;;5038889;28;20467;-83
2023/08/20 06:30:29;;;;;;;7.00;6.40;;;;;;;;;;5042713;28;20428;-83
2023/08/20 06:32:56;;;;;;;4.70;3.70;;;;;;;;;;5047086;28;20427;-84
2023/08/20 06:35:23;;;;;;;5.68;3.95;;;;;;;;;;5030707;28;20429;-83
2023/08/20 06:37:56;;;;;;;477.25;434.90;;;;;;;;;;5038770;28;20432;-85
2023/08/20 06:40:23;;;;;;;118.78;109.30;;;;;;;;;;5057586;28;20436;-86
2023/08/20 06:42:50;;;;;;;317.80;289.53;;;;;;;;;;5060485;28;20443;-86
2023/08/20 06:45:17;;;;;;;171.45;155.93;;;;;;;;;;5070178;28;20455;-85
2023/08/20 06:47:45;;;;;;;339.03;309.10;;;;;;;;;;5061136;28;20941;-86
2023/08/20 06:50:12;;;;;;;893.15;817.17;;;;;;;;;;5048951;28;20497;-85
2023/08/20 06:52:39;;;;;;;9.00;6.72;;;;;;;;;;5042099;28;22321;-85
2023/08/20 06:55:07;;;;;;;102.67;94.27;;;;;;;;;;5050018;28;20976;-85
2023/08/20 06:57:34;;;;;;;511.45;467.60;;;;;;;;;;5051201;28;20436;-85
2023/08/20 07:00:04;;;;;;;47.95;44.20;;;;;;;;;;5052397;28;20427;-85
2023/08/20 07:02:31;;;;;;;661.70;604.40;;;;;;;;;;5042547;28;20428;-85
2023/08/20 07:04:58;;;;;;;5.43;4.93;;;;;;;;;;5043559;28;20521;-82
2023/08/20 07:07:26;;;;;;;98.17;90.77;;;;;;;;;;5063486;28;20488;-82
2023/08/20 07:09:53;;;;;;;717.03;654.63;;;;;;;;;;5044823;28;20997;-84
2023/08/20 07:12:20;;;;;;;59.10;54.43;;;;;;;;;;5039863;28;20439;-85
2023/08/20 07:14:47;;;;;;;4.20;3.78;;;;;;;;;;5042136;28;20476;-83
2023/08/20 07:17:14;;;;;;;97.05;89.85;;;;;;;;;;5059768;28;20519;-82
2023/08/20 07:19:42;;;;;;;4.37;3.97;;;;;;;;;;5040029;28;20422;-83
2023/08/20 07:22:09;;;;;;;4.43;4.03;;;;;;;;;;5057725;28;20454;-83
2023/08/20 07:24:36;;;;;;;6.88;5.38;;;;;;;;;;5040027;28;20922;-86
2023/08/20 07:27:10;;;;;;;149.48;138.32;;;;;;;;;;5056773;28;20508;-85
2023/08/20 07:29:37;;;;;;;164.38;151.23;;;;;;;;;;5040731;28;20806;-85
2023/08/20 07:32:05;;;;;;;8.98;8.27;;;;;;;;;;5058339;28;20522;-84
2023/08/20 07:34:34;;;;;;;5.43;3.90;;;;;;;;;;5060627;28;20432;-82
2023/08/20 07:37:02;;;;;;;4.15;3.75;;;;;;;;;;5039176;28;20528;-83
2023/08/20 07:39:29;;;;;;;6.43;3.65;;;;;;;;;;5050726;28;20420;-87
2023/08/20 07:41:57;;;;;;;4.65;3.92;;;;;;;;;;5035125;28;20443;-89
2023/08/20 07:44:24;;;;;;;6.85;6.35;;;;;;;;;;5054997;28;20476;-83
2023/08/20 07:46:51;;;;;;;6.00;4.00;;;;;;;;;;5036694;28;20467;-84
2023/08/20 07:49:18;;;;;;;5.22;3.85;;;;;;;;;;5039244;28;20547;-84
2023/08/20 07:51:45;;;;;;;4.45;4.00;;;;;;;;;;5033524;28;20463;-85
2023/08/20 07:54:12;;;;;;;6.40;3.97;;;;;;;;;;5036421;28;20439;-84
2023/08/20 07:56:39;;;;;;;6.43;3.78;;;;;;;;;;5059693;28;20426;-83
2023/08/20 07:59:07;;;;;;;4.75;4.07;;;;;;;;;;5066351;28;20426;-84
2023/08/20 08:01:34;;;;;;;4.55;4.15;;;;;;;;;;5042313;28;20491;-83
2023/08/20 08:04:01;;;;;;;4.50;4.10;;;;;;;;;;5037687;28;20439;-85
2023/08/20 08:06:28;;;;;;;4.80;4.40;;;;;;;;;;5040061;28;20442;-86
2023/08/20 08:08:56;;;;;;;4.85;4.35;;;;;;;;;;5068405;28;21002;-84
2023/08/20 08:11:24;;;;;;;7.43;6.70;;;;;;;;;;5062576;28;20927;-83
2023/08/20 08:13:51;;;;;;;8.50;7.72;;;;;;;;;;5033527;28;20803;-85
2023/08/20 08:16:18;;;;;;;7.75;7.05;;;;;;;;;;5035306;28;20443;-82
2023/08/20 08:18:45;;;;;;;7.25;5.15;;;;;;;;;;5055517;28;20427;-84
2023/08/20 08:21:12;;;;;;;5.18;4.03;;;;;;;;;;5057518;28;20439;-82
2023/08/20 08:23:40;;;;;;;5.22;3.97;;;;;;;;;;5054773;28;20490;-83
2023/08/20 08:26:07;;;;;;;5.07;3.80;;;;;;;;;;5056389;28;20488;-82
2023/08/20 08:28:34;;;;;;;6.20;4.50;;;;;;;;;;5038501;28;20972;-83
2023/08/20 08:31:01;;;;;;;17.27;16.02;;;;;;;;;;5053748;28;20574;-84
2023/08/20 08:33:31;;;;;;;12.85;11.85;;;;;;;;;;5037697;28;21497;-83
2023/08/20 08:35:59;;;;;;;8.48;7.80;;;;;;;;;;5052570;28;21332;-82
2023/08/20 08:38:26;;;;;;;7.57;4.50;;;;;;;;;;5038814;28;21119;-88
2023/08/20 08:40:55;;;;;;;9.00;4.70;;;;;;;;;;5041720;28;20919;-87
2023/08/20 08:43:23;;;;;;;4.22;3.88;;;;;;;;;;5041534;28;20434;-85
2023/08/20 08:45:50;;;;;;;5.13;4.60;;;;;;;;;;5054555;28;20522;-88
2023/08/20 08:48:18;;;;;;;6.93;3.97;;;;;;;;;;5060764;28;20721;-89
2023/08/20 08:50:47;;;;;;;6.10;4.88;;;;;;;;;;5042366;28;20459;-89
2023/08/20 08:53:14;;;;;;;5.75;4.28;;;;;;;;;;5061754;28;20431;-88
2023/08/20 08:55:44;;;;;;;5.28;4.30;;;;;;;;;;5042639;28;20921;-89
2023/08/20 08:58:11;;;;;;;7.93;7.32;;;;;;;;;;5055697;28;22862;-86
2023/08/20 09:00:39;;;;;;;5.85;4.47;;;;;;;;;;5042282;28;20985;-88
2023/08/20 09:03:06;;;;;;;4.50;4.03;;;;;;;;;;5056703;28;20435;-88
2023/08/20 09:05:33;;;;;;;23.03;21.30;;;;;;;;;;5044855;28;20435;-87
2023/08/20 09:08:00;;;;;;;4.47;4.07;;;;;;;;;;5041605;28;20540;-86
2023/08/20 09:10:29;;;;;;;4.45;4.10;;;;;;;;;;5055536;28;20441;-87
2023/08/20 09:12:57;;;;;;;4.63;4.22;;;;;;;;;;5057145;28;20432;-87
2023/08/20 09:15:30;;;;;;;4.53;4.13;;;;;;;;;;5039563;28;20451;-86
2023/08/20 09:17:58;;;;;;;7.53;4.13;;;;;;;;;;5042971;28;20439;-86
2023/08/20 09:20:34;;;;;;;5.07;3.80;;;;;;;;;;5033442;28;21220;-86
2023/08/20 09:23:05;;;;;;;4.80;3.67;;;;;;;;;;5038860;28;20427;-85
2023/08/20 09:25:32;;;;;;;3.88;3.67;;;;;;;;;;5037171;28;20518;-86
2023/08/20 09:28:04;;;;;;;5.60;3.90;;;;;;;;;;5047983;28;20530;-85
2023/08/20 09:30:31;;;;;;;5.27;4.17;;;;;;;;;;5034719;28;20443;-87
2023/08/20 09:33:11;;;;;;;4.00;3.60;;;;;;;;;;5039562;28;20423;-87
2023/08/20 09:35:39;;;;;;;4.60;3.85;;;;;;;;;;5052396;28;20925;-83
2023/08/20 09:38:06;;;;;;;3.70;3.40;;;;;;;;;;5038558;28;20518;-83
2023/08/20 09:40:33;;;;;;;3.90;3.60;;;;;;;;;;5055653;28;20441;-82
2023/08/20 09:43:01;;;;;;;3.95;3.53;;;;;;;;;;5054270;28;21125;-81
2023/08/20 09:45:29;;;;;;;5.50;4.30;;;;;;;;;;5056158;28;21012;-81
2023/08/20 09:47:57;;;;;;;5.05;4.10;;;;;;;;;;5049946;28;20516;-82
2023/08/20 09:50:26;;;;;;;3.50;3.30;;;;;;;;;;5036823;28;20450;-81
2023/08/20 09:53:04;;;;;;;3.78;3.47;;;;;;;;;;5052778;28;20437;-81
2023/08/20 09:55:36;;;;;;;4.53;4.20;;;;;;;;;;5036888;28;20508;-81
2023/08/20 09:58:03;;;;;;;5.03;3.97;;;;;;;;;;5039677;28;20454;-83
2023/08/20 10:00:31;;;;;;;4.68;4.18;;;;;;;;;;5055939;28;20899;-82
2023/08/20 10:03:00;;;;;;;4.97;3.87;;;;;;;;;;5061454;28;20435;-84
2023/08/20 10:05:27;;;;;;;4.22;3.92;;;;;;;;;;5034500;28;20541;-82
2023/08/20 10:07:56;;;;;;;4.60;4.20;;;;;;;;;;5051835;28;21063;-83
2023/08/20 10:10:23;;;;;;;4.40;4.00;;;;;;;;;;5059652;28;20467;-82
2023/08/20 10:13:03;;;;;;;4.00;3.72;;;;;;;;;;5056536;28;21494;-83
2023/08/20 10:15:31;;;;;;;3.75;3.40;;;;;;;;;;5054979;28;20459;-82
2023/08/20 10:17:58;;;;;;;5.13;3.75;;;;;;;;;;5038521;28;20431;-83
2023/08/20 10:20:30;;;;;;;3.80;3.35;;;;;;;;;;5053177;28;20426;-82
2023/08/20 10:23:01;;;;;;;5.53;3.97;;;;;;;;;;5050633;28;20439;-83
2023/08/20 10:25:29;;;;;;;6.50;5.85;;;;;;;;;;5057401;28;20460;-82
2023/08/20 10:28:16;;;;;;;4.57;4.18;;;;;;;;;;5058235;28;20441;-81
2023/08/20 10:31:02;;;;;;;3.80;3.50;;;;;;;;;;5036930;28;20429;-81
2023/08/20 10:33:29;;;;;;;4.07;3.67;;;;;;;;;;5040892;28;20439;-82
2023/08/20 10:35:56;;;;;;;3.70;3.45;;;;;;;;;;5041423;28;20568;-83
2023/08/20 10:38:25;;;;;;;3.60;3.30;;;;;;;;;;5042486;28;20528;-82
2023/08/20 10:40:56;;;;;;;5.03;3.60;;;;;;;;;;5037676;28;20463;-83
2023/08/20 10:43:44;;;;;;;3.80;3.58;;;;;;;;;;5039569;28;20450;-83
2023/08/20 10:46:16;;;;;;;3.58;3.30;;;;;;;;;;5045485;28;20435;-82
2023/08/20 10:48:52;;;;;;;4.53;3.43;;;;;;;;;;5039996;28;20430;-83
2023/08/20 10:51:25;;;;;;;3.80;3.40;;;;;;;;;;5055437;28;20522;-80
2023/08/20 10:54:02;;;;;;;3.40;3.20;;;;;;;;;;5062918;28;20427;-82
2023/08/20 10:56:38;;;;;;;3.50;3.30;;;;;;;;;;5037133;28;20471;-82
2023/08/20 10:59:09;;;;;;;3.42;3.20;;;;;;;;;;5055139;28;20485;-81
2023/08/20 11:01:37;;;;;;;5.30;3.50;;;;;;;;;;5039879;28;20468;-81
2023/08/20 11:04:07;;;;;;;3.40;3.10;;;;;;;;;;5043962;28;21220;-81
2023/08/20 11:06:34;;;;;;;4.38;3.30;;;;;;;;;;5060615;28;20915;-82
2023/08/20 11:09:05;;;;;;;4.78;3.58;;;;;;;;;;5061324;28;20500;-82
2023/08/20 11:11:33;;;;;;;3.50;3.20;;;;;;;;;;5039386;28;20846;-82
2023/08/20 11:14:16;;;;;;;4.32;3.47;;;;;;;;;;5036854;28;20631;-82
2023/08/20 11:16:44;;;;;;;3.50;3.20;;;;;;;;;;5047064;28;20540;-82
2023/08/20 11:19:11;;;;;;;3.30;3.10;;;;;;;;;;5064426;28;20420;-82
2023/08/20 11:21:39;;;;;;;3.28;2.97;;;;;;;;;;5045679;28;21689;-82
2023/08/20 11:24:17;;;;;;;3.55;3.28;;;;;;;;;;5056677;28;20495;-83
2023/08/20 11:26:45;;;;;;;3.83;3.17;;;;;;;;;;5038998;28;20439;-82
2023/08/20 11:29:19;;;;;;;3.35;3.08;;;;;;;;;;5059280;28;20427;-82
2023/08/20 11:31:50;;;;;;;3.55;3.25;;;;;;;;;;5070038;28;21034;-83
2023/08/20 11:34:21;;;;;;;4.10;3.45;;;;;;;;;;5058785;28;20505;-83
2023/08/20 11:36:51;;;;;;;3.40;3.10;;;;;;;;;;5043095;28;20427;-83
2023/08/20 11:39:18;;;;;;;4.25;2.92;;;;;;;;;;5044391;28;20925;-82
2023/08/20 11:41:46;;;;;;;3.60;2.53;;;;;;;;;;5048899;28;20783;-82
2023/08/20 11:44:26;;;;;;;3.33;2.60;;;;;;;;;;5058125;28;20424;-82
2023/08/20 11:46:54;;;;;;;2.75;2.50;;;;;;;;;;5061590;28;20833;-82
2023/08/20 11:49:29;;;;;;;5.55;2.65;;;;;;;;;;5039706;28;20439;-81
2023/08/20 11:51:57;;;;;;;3.05;2.80;;;;;;;;;;5054422;28;20431;-82
2023/08/20 11:54:26;;;;;;;4.32;2.97;;;;;;;;;;5041725;28;20457;-81
2023/08/20 11:57:04;;;;;;;5.22;2.75;;;;;;;;;;5057693;28;20441;-81
2023/08/20 11:59:32;;;;;;;4.25;3.47;;;;;;;;;;5041141;28;20436;-82
2023/08/20 12:02:03;;;;;;;3.55;2.80;;;;;;;;;;5034944;28;20443;-81
2023/08/20 12:04:31;;;;;;;3.28;3.00;;;;;;;;;;5050710;28;20496;-82
2023/08/20 12:07:15;;;;;;;5.10;4.70;;;;;;;;;;5042720;28;20561;-81
2023/08/20 12:09:42;;;;;;;3.47;3.17;;;;;;;;;;5061966;28;20472;-82
2023/08/20 12:12:10;;;;;;;3.40;3.10;;;;;;;;;;5039968;28;21124;-81
2023/08/20 12:14:37;;;;;;;3.10;2.70;;;;;;;;;;5021806;28;20440;-82
2023/08/20 12:17:05;;;;;;;21.52;19.92;;;;;;;;;;5053519;28;20431;-81
2023/08/20 12:19:33;;;;;;;7.33;6.80;;;;;;;;;;5059136;28;20439;-81
2023/08/20 12:22:00;;;;;;;8.57;8.00;;;;;;;;;;5039351;28;20446;-81
2023/08/20 12:24:27;;;;;;;3.72;3.30;;;;;;;;;;5059969;28;21381;-81
2023/08/20 12:26:54;;;;;;;4.63;3.40;;;;;;;;;;5058042;28;21016;-81
2023/08/20 12:29:22;;;;;;;39.53;36.50;;;;;;;;;;5046317;28;20510;-82
2023/08/20 12:31:52;;;;;;;5.60;5.07;;;;;;;;;;5045734;28;20509;-82
2023/08/20 12:34:21;;;;;;;3.50;3.28;;;;;;;;;;5055224;28;20514;-82
2023/08/20 12:36:49;;;;;;;3.88;3.58;;;;;;;;;;5038032;28;20463;-82
2023/08/20 12:39:17;;;;;;;2.95;2.72;;;;;;;;;;5059128;28;20419;-81
2023/08/20 12:41:44;;;;;;;4.50;3.20;;;;;;;;;;5054453;28;20435;-81
2023/08/20 12:44:21;;;;;;;4.13;3.20;;;;;;;;;;5056223;28;20905;-82
2023/08/20 12:46:48;;;;;;;3.65;3.35;;;;;;;;;;5036936;28;20840;-80
2023/08/20 12:49:15;;;;;;;3.83;3.53;;;;;;;;;;5040945;28;20445;-81
2023/08/20 12:51:43;;;;;;;3.60;3.30;;;;;;;;;;5052494;28;20549;-80
2023/08/20 12:54:11;;;;;;;4.78;3.05;;;;;;;;;;5038548;28;20441;-81
2023/08/20 12:56:38;;;;;;;280.77;254.70;;;;;;;;;;5040217;28;20533;-82
2023/08/20 12:59:08;;;;;;;606.90;550.75;;;;;;;;;;5061328;28;20558;-82
2023/08/20 13:01:35;;;;;;;38.80;33.78;;;;;;;;;;5040794;28;20435;-82
2023/08/20 13:04:03;;;;;;;7.03;6.55;;;;;;;;;;5059929;28;20431;-81
2023/08/20 13:06:31;;;;;;;20.97;19.47;;;;;;;;;;5038738;28;20792;-81
2023/08/20 13:08:58;;;;;;;3.58;3.28;;;;;;;;;;5050570;28;20438;-81
2023/08/20 13:11:26;;;;;;;68.30;62.50;;;;;;;;;;5035004;28;20509;-81
2023/08/20 13:13:54;;;;;;;29.95;27.90;;;;;;;;;;5055931;28;20439;-82
2023/08/20 13:16:21;;;;;;;4.80;3.53;;;;;;;;;;5036512;28;20419;-80
2023/08/20 13:18:48;;;;;;;4.18;3.88;;;;;;;;;;5055903;28;20476;-81
2023/08/20 13:21:16;;;;;;;3.47;3.17;;;;;;;;;;5054021;28;20789;-82
2023/08/20 13:23:44;;;;;;;5.13;3.30;;;;;;;;;;5057530;28;20506;-81
2023/08/20 13:26:11;;;;;;;3.75;3.35;;;;;;;;;;5059071;28;20982;-81
2023/08/20 13:28:39;;;;;;;4.25;3.80;;;;;;;;;;5039332;28;20520;-82
2023/08/20 13:31:09;;;;;;;3.60;3.28;;;;;;;;;;5054081;28;20436;-82
2023/08/20 13:33:36;;;;;;;3.92;3.63;;;;;;;;;;5040191;28;21136;-82
2023/08/20 13:36:04;;;;;;;4.60;3.85;;;;;;;;;;5054047;28;20436;-82
2023/08/20 13:38:32;;;;;;;3.93;3.63;;;;;;;;;;5049415;28;20435;-82
2023/08/20 13:40:59;;;;;;;3.60;3.30;;;;;;;;;;5054004;28;20463;-82
2023/08/20 13:43:29;;;;;;;3.60;3.30;;;;;;;;;;5052788;28;20438;-82
2023/08/20 13:45:56;;;;;;;3.45;3.10;;;;;;;;;;5052118;28;20439;-81
2023/08/20 13:48:23;;;;;;;6.10;3.10;;;;;;;;;;5036942;28;20447;-81
2023/08/20 13:51:00;;;;;;;4.85;3.30;;;;;;;;;;5052920;28;20883;-80
2023/08/20 13:53:28;;;;;;;3.80;3.40;;;;;;;;;;5039528;28;20525;-81
2023/08/20 13:56:03;;;;;;;3.50;3.20;;;;;;;;;;5040627;28;20438;-80
2023/08/20 13:58:33;;;;;;;6.80;3.67;;;;;;;;;;5037087;28;20442;-81
2023/08/20 14:01:00;;;;;;;3.67;3.38;;;;;;;;;;5061249;28;20436;-80
2023/08/20 14:03:27;;;;;;;4.10;3.00;;;;;;;;;;5054263;28;20948;-81
2023/08/20 14:06:00;;;;;;;3.25;2.97;;;;;;;;;;5054463;28;20919;-81
2023/08/20 14:08:28;;;;;;;3.17;2.95;;;;;;;;;;5066348;28;20512;-81
2023/08/20 14:10:55;;;;;;;3.63;3.33;;;;;;;;;;5057241;28;20459;-82
2023/08/20 14:13:22;;;;;;;4.50;3.17;;;;;;;;;;5037313;28;20518;-82
2023/08/20 14:15:49;;;;;;;3.20;2.97;;;;;;;;;;5056532;28;20438;-80
2023/08/20 14:18:16;;;;;;;2.80;2.70;;;;;;;;;;5053407;28;20427;-81
2023/08/20 14:20:44;;;;;;;3.55;3.03;;;;;;;;;;5052579;28;20434;-80
2023/08/20 14:23:12;;;;;;;3.60;2.95;;;;;;;;;;5057976;28;20478;-80
2023/08/20 14:25:40;;;;;;;3.53;3.27;;;;;;;;;;5039126;28;20442;-80
2023/08/20 14:28:08;;;;;;;3.45;2.70;;;;;;;;;;5039687;28;20432;-82
2023/08/20 14:30:39;;;;;;;3.72;3.25;;;;;;;;;;5038412;28;20431;-80